sensor_id;sensor_type;location;lat;lon;timestamp;P1;durP1;ratioP1;P2;durP2;ratioP2
10701;SDS011;5402;50.004;8.246;2024-01-30T00:01:02;21.10;;;14.47;;
10701;SDS011;5402;50.004;8.246;2024-01-30T00:03:29;23.60;;;15.37;;
10701;SDS011;5402;50.004;8.246;2024-01-30T00:05:55;21.60;;;13.97;;
10701;SDS011;5402;50.004;8.246;2024-01-30T00:08:23;21.70;;;14.87;;
10701;SDS011;5402;50.004;8.246;2024-01-30T00:10:50;23.10;;;14.53;;
10701;SDS011;5402;50.004;8.246;2024-01-30T00:13:17;22.33;;;14.43;;
10701;SDS011;5402;50.004;8.246;2024-01-30T00:15:44;23.73;;;15.70;;
10701;SDS011;5402;50.004;8.246;2024-01-30T00:18:11;23.50;;;15.37;;
10701;SDS011;5402;50.004;8.246;2024-01-30T00:20:38;25.23;;;16.90;;
10701;SDS011;5402;50.004;8.246;2024-01-30T00:23:05;27.17;;;16.77;;
10701;SDS011;5402;50.004;8.246;2024-01-30T00:25:33;23.87;;;16.07;;
10701;SDS011;5402;50.004;8.246;2024-01-30T00:28:00;25.93;;;16.47;;
10701;SDS011;5402;50.004;8.246;2024-01-30T00:30:27;24.63;;;16.40;;
10701;SDS011;5402;50.004;8.246;2024-01-30T00:32:54;25.23;;;16.87;;
10701;SDS011;5402;50.004;8.246;2024-01-30T00:35:21;31.13;;;17.83;;
10701;SDS011;5402;50.004;8.246;2024-01-30T00:37:48;27.73;;;16.60;;
10701;SDS011;5402;50.004;8.246;2024-01-30T00:40:15;28.27;;;17.63;;
10701;SDS011;5402;50.004;8.246;2024-01-30T00:42:44;30.40;;;17.33;;
10701;SDS011;5402;50.004;8.246;2024-01-30T00:45:12;24.40;;;16.90;;
10701;SDS011;5402;50.004;8.246;2024-01-30T00:47:40;25.50;;;16.33;;
10701;SDS011;5402;50.004;8.246;2024-01-30T00:50:09;26.10;;;16.93;;
10701;SDS011;5402;50.004;8.246;2024-01-30T00:52:36;26.07;;;16.03;;
10701;SDS011;5402;50.004;8.246;2024-01-30T00:55:04;26.77;;;16.83;;
10701;SDS011;5402;50.004;8.246;2024-01-30T00:57:31;22.80;;;15.80;;
10701;SDS011;5402;50.004;8.246;2024-01-30T00:59:59;27.20;;;16.70;;
10701;SDS011;5402;50.004;8.246;2024-01-30T01:02:26;24.63;;;15.23;;
10701;SDS011;5402;50.004;8.246;2024-01-30T01:04:53;26.87;;;16.97;;
10701;SDS011;5402;50.004;8.246;2024-01-30T01:07:19;27.03;;;16.73;;
10701;SDS011;5402;50.004;8.246;2024-01-30T01:09:46;26.70;;;16.73;;
10701;SDS011;5402;50.004;8.246;2024-01-30T01:12:13;22.23;;;15.00;;
10701;SDS011;5402;50.004;8.246;2024-01-30T01:14:40;25.70;;;15.70;;
10701;SDS011;5402;50.004;8.246;2024-01-30T01:17:08;25.93;;;16.07;;
10701;SDS011;5402;50.004;8.246;2024-01-30T01:19:35;26.43;;;16.10;;
10701;SDS011;5402;50.004;8.246;2024-01-30T01:22:02;24.00;;;15.67;;
10701;SDS011;5402;50.004;8.246;2024-01-30T01:24:30;26.40;;;15.70;;
10701;SDS011;5402;50.004;8.246;2024-01-30T01:26:57;23.40;;;15.33;;
10701;SDS011;5402;50.004;8.246;2024-01-30T01:29:24;25.40;;;15.77;;
10701;SDS011;5402;50.004;8.246;2024-01-30T01:31:53;23.40;;;14.70;;
10701;SDS011;5402;50.004;8.246;2024-01-30T01:34:22;22.30;;;14.60;;
10701;SDS011;5402;50.004;8.246;2024-01-30T01:36:49;21.80;;;14.63;;
10701;SDS011;5402;50.004;8.246;2024-01-30T01:39:16;23.30;;;15.13;;
10701;SDS011;5402;50.004;8.246;2024-01-30T01:41:43;22.77;;;14.50;;
10701;SDS011;5402;50.004;8.246;2024-01-30T01:44:09;23.13;;;14.73;;
10701;SDS011;5402;50.004;8.246;2024-01-30T01:46:36;24.20;;;14.93;;
10701;SDS011;5402;50.004;8.246;2024-01-30T01:49:04;25.87;;;14.93;;
10701;SDS011;5402;50.004;8.246;2024-01-30T01:51:33;22.57;;;14.87;;
10701;SDS011;5402;50.004;8.246;2024-01-30T01:54:03;22.30;;;14.97;;
10701;SDS011;5402;50.004;8.246;2024-01-30T01:56:31;23.27;;;14.70;;
10701;SDS011;5402;50.004;8.246;2024-01-30T01:59:00;23.30;;;14.97;;
10701;SDS011;5402;50.004;8.246;2024-01-30T02:01:34;24.27;;;14.07;;
10701;SDS011;5402;50.004;8.246;2024-01-30T02:04:02;21.73;;;14.13;;
10701;SDS011;5402;50.004;8.246;2024-01-30T02:06:29;22.50;;;14.43;;
10701;SDS011;5402;50.004;8.246;2024-01-30T02:08:58;27.27;;;15.17;;
10701;SDS011;5402;50.004;8.246;2024-01-30T02:11:25;23.50;;;13.47;;
10701;SDS011;5402;50.004;8.246;2024-01-30T02:13:52;26.43;;;14.57;;
10701;SDS011;5402;50.004;8.246;2024-01-30T02:16:18;22.53;;;14.33;;
10701;SDS011;5402;50.004;8.246;2024-01-30T02:18:45;25.17;;;15.53;;
10701;SDS011;5402;50.004;8.246;2024-01-30T02:21:14;26.77;;;14.93;;
10701;SDS011;5402;50.004;8.246;2024-01-30T02:23:42;25.80;;;14.47;;
10701;SDS011;5402;50.004;8.246;2024-01-30T02:26:10;25.17;;;14.03;;
10701;SDS011;5402;50.004;8.246;2024-01-30T02:28:37;25.87;;;14.97;;
10701;SDS011;5402;50.004;8.246;2024-01-30T02:31:04;21.30;;;13.23;;
10701;SDS011;5402;50.004;8.246;2024-01-30T02:33:31;21.70;;;14.80;;
10701;SDS011;5402;50.004;8.246;2024-01-30T02:35:58;22.93;;;14.20;;
10701;SDS011;5402;50.004;8.246;2024-01-30T02:38:26;23.47;;;14.60;;
10701;SDS011;5402;50.004;8.246;2024-01-30T02:40:53;21.33;;;14.00;;
10701;SDS011;5402;50.004;8.246;2024-01-30T02:43:22;21.77;;;13.53;;
10701;SDS011;5402;50.004;8.246;2024-01-30T02:45:49;22.67;;;14.13;;
10701;SDS011;5402;50.004;8.246;2024-01-30T02:48:16;21.27;;;14.03;;
10701;SDS011;5402;50.004;8.246;2024-01-30T02:50:42;22.30;;;13.77;;
10701;SDS011;5402;50.004;8.246;2024-01-30T02:53:09;22.87;;;13.73;;
10701;SDS011;5402;50.004;8.246;2024-01-30T02:55:37;24.20;;;14.50;;
10701;SDS011;5402;50.004;8.246;2024-01-30T02:58:04;22.23;;;13.57;;
10701;SDS011;5402;50.004;8.246;2024-01-30T03:00:31;21.07;;;12.70;;
10701;SDS011;5402;50.004;8.246;2024-01-30T03:02:57;23.17;;;14.23;;
10701;SDS011;5402;50.004;8.246;2024-01-30T03:05:24;21.37;;;13.90;;
10701;SDS011;5402;50.004;8.246;2024-01-30T03:07:51;21.60;;;13.73;;
10701;SDS011;5402;50.004;8.246;2024-01-30T03:10:17;21.07;;;13.63;;
10701;SDS011;5402;50.004;8.246;2024-01-30T03:12:46;20.90;;;14.00;;
10701;SDS011;5402;50.004;8.246;2024-01-30T03:15:12;20.67;;;14.10;;
10701;SDS011;5402;50.004;8.246;2024-01-30T03:17:39;20.87;;;13.30;;
10701;SDS011;5402;50.004;8.246;2024-01-30T03:20:07;22.33;;;13.40;;
10701;SDS011;5402;50.004;8.246;2024-01-30T03:22:35;23.63;;;14.13;;
10701;SDS011;5402;50.004;8.246;2024-01-30T03:25:01;22.33;;;14.10;;
10701;SDS011;5402;50.004;8.246;2024-01-30T03:27:29;21.20;;;13.27;;
10701;SDS011;5402;50.004;8.246;2024-01-30T03:29:57;20.20;;;12.43;;
10701;SDS011;5402;50.004;8.246;2024-01-30T03:32:23;23.40;;;14.23;;
10701;SDS011;5402;50.004;8.246;2024-01-30T03:34:50;20.50;;;14.13;;
10701;SDS011;5402;50.004;8.246;2024-01-30T03:37:17;25.00;;;14.17;;
10701;SDS011;5402;50.004;8.246;2024-01-30T03:39:43;25.27;;;14.73;;
10701;SDS011;5402;50.004;8.246;2024-01-30T03:42:10;20.70;;;13.53;;
10701;SDS011;5402;50.004;8.246;2024-01-30T03:44:37;22.73;;;13.97;;
10701;SDS011;5402;50.004;8.246;2024-01-30T03:47:05;21.30;;;13.47;;
10701;SDS011;5402;50.004;8.246;2024-01-30T03:49:31;21.50;;;13.23;;
10701;SDS011;5402;50.004;8.246;2024-01-30T03:51:58;18.77;;;13.13;;
10701;SDS011;5402;50.004;8.246;2024-01-30T03:54:27;22.53;;;13.10;;
10701;SDS011;5402;50.004;8.246;2024-01-30T03:56:53;19.73;;;13.33;;
10701;SDS011;5402;50.004;8.246;2024-01-30T03:59:20;23.53;;;13.63;;
10701;SDS011;5402;50.004;8.246;2024-01-30T04:01:49;21.23;;;13.73;;
10701;SDS011;5402;50.004;8.246;2024-01-30T04:04:17;21.03;;;14.67;;
10701;SDS011;5402;50.004;8.246;2024-01-30T04:06:44;25.43;;;14.57;;
10701;SDS011;5402;50.004;8.246;2024-01-30T04:09:12;20.90;;;14.00;;
10701;SDS011;5402;50.004;8.246;2024-01-30T04:11:39;26.60;;;15.00;;
10701;SDS011;5402;50.004;8.246;2024-01-30T04:14:06;22.20;;;14.30;;
10701;SDS011;5402;50.004;8.246;2024-01-30T04:16:33;22.97;;;13.83;;
10701;SDS011;5402;50.004;8.246;2024-01-30T04:19:01;25.20;;;13.93;;
10701;SDS011;5402;50.004;8.246;2024-01-30T04:21:29;21.37;;;13.73;;
10701;SDS011;5402;50.004;8.246;2024-01-30T04:23:56;24.63;;;13.87;;
10701;SDS011;5402;50.004;8.246;2024-01-30T04:26:24;29.43;;;14.50;;
10701;SDS011;5402;50.004;8.246;2024-01-30T04:28:50;23.20;;;12.97;;
10701;SDS011;5402;50.004;8.246;2024-01-30T04:31:17;22.53;;;14.30;;
10701;SDS011;5402;50.004;8.246;2024-01-30T04:33:44;22.47;;;14.20;;
10701;SDS011;5402;50.004;8.246;2024-01-30T04:36:10;22.00;;;13.17;;
10701;SDS011;5402;50.004;8.246;2024-01-30T04:38:38;22.47;;;14.43;;
10701;SDS011;5402;50.004;8.246;2024-01-30T04:41:05;23.67;;;14.77;;
10701;SDS011;5402;50.004;8.246;2024-01-30T04:43:32;24.00;;;14.50;;
10701;SDS011;5402;50.004;8.246;2024-01-30T04:45:59;22.30;;;15.03;;
10701;SDS011;5402;50.004;8.246;2024-01-30T04:48:25;22.50;;;14.70;;
10701;SDS011;5402;50.004;8.246;2024-01-30T04:50:52;22.73;;;13.63;;
10701;SDS011;5402;50.004;8.246;2024-01-30T04:53:19;24.53;;;14.37;;
10701;SDS011;5402;50.004;8.246;2024-01-30T04:55:47;23.10;;;14.80;;
10701;SDS011;5402;50.004;8.246;2024-01-30T04:58:14;22.63;;;14.17;;
10701;SDS011;5402;50.004;8.246;2024-01-30T05:00:40;22.77;;;14.53;;
10701;SDS011;5402;50.004;8.246;2024-01-30T05:03:07;21.97;;;14.00;;
10701;SDS011;5402;50.004;8.246;2024-01-30T05:05:34;21.83;;;13.73;;
10701;SDS011;5402;50.004;8.246;2024-01-30T05:08:01;27.03;;;14.10;;
10701;SDS011;5402;50.004;8.246;2024-01-30T05:10:27;22.93;;;14.20;;
10701;SDS011;5402;50.004;8.246;2024-01-30T05:12:56;19.47;;;12.57;;
10701;SDS011;5402;50.004;8.246;2024-01-30T05:15:22;25.07;;;14.63;;
10701;SDS011;5402;50.004;8.246;2024-01-30T05:17:49;26.70;;;16.47;;
10701;SDS011;5402;50.004;8.246;2024-01-30T05:20:16;26.73;;;14.63;;
10701;SDS011;5402;50.004;8.246;2024-01-30T05:22:43;29.13;;;15.23;;
10701;SDS011;5402;50.004;8.246;2024-01-30T05:25:10;23.20;;;15.93;;
10701;SDS011;5402;50.004;8.246;2024-01-30T05:27:38;22.50;;;15.20;;
10701;SDS011;5402;50.004;8.246;2024-01-30T05:30:06;22.87;;;14.07;;
10701;SDS011;5402;50.004;8.246;2024-01-30T05:32:34;26.83;;;15.40;;
10701;SDS011;5402;50.004;8.246;2024-01-30T05:35:00;23.03;;;14.40;;
10701;SDS011;5402;50.004;8.246;2024-01-30T05:37:27;25.10;;;15.07;;
10701;SDS011;5402;50.004;8.246;2024-01-30T05:39:54;20.70;;;14.10;;
10701;SDS011;5402;50.004;8.246;2024-01-30T05:42:20;20.87;;;12.93;;
10701;SDS011;5402;50.004;8.246;2024-01-30T05:44:47;21.10;;;13.97;;
10701;SDS011;5402;50.004;8.246;2024-01-30T05:47:15;22.10;;;13.97;;
10701;SDS011;5402;50.004;8.246;2024-01-30T05:49:42;23.43;;;13.87;;
10701;SDS011;5402;50.004;8.246;2024-01-30T05:52:08;25.20;;;14.17;;
10701;SDS011;5402;50.004;8.246;2024-01-30T05:54:35;20.23;;;13.47;;
10701;SDS011;5402;50.004;8.246;2024-01-30T05:57:02;23.93;;;15.47;;
10701;SDS011;5402;50.004;8.246;2024-01-30T05:59:29;21.97;;;14.13;;
10701;SDS011;5402;50.004;8.246;2024-01-30T06:01:56;22.70;;;14.37;;
10701;SDS011;5402;50.004;8.246;2024-01-30T06:04:24;27.83;;;14.57;;
10701;SDS011;5402;50.004;8.246;2024-01-30T06:06:51;22.43;;;14.37;;
10701;SDS011;5402;50.004;8.246;2024-01-30T06:09:17;22.10;;;14.57;;
10701;SDS011;5402;50.004;8.246;2024-01-30T06:11:45;24.00;;;14.30;;
10701;SDS011;5402;50.004;8.246;2024-01-30T06:14:11;20.83;;;14.00;;
10701;SDS011;5402;50.004;8.246;2024-01-30T06:16:38;22.17;;;13.27;;
10701;SDS011;5402;50.004;8.246;2024-01-30T06:19:05;24.27;;;15.60;;
10701;SDS011;5402;50.004;8.246;2024-01-30T06:21:33;22.00;;;14.87;;
10701;SDS011;5402;50.004;8.246;2024-01-30T06:24:01;21.70;;;14.27;;
10701;SDS011;5402;50.004;8.246;2024-01-30T06:26:28;18.73;;;13.27;;
10701;SDS011;5402;50.004;8.246;2024-01-30T06:28:56;21.23;;;13.20;;
10701;SDS011;5402;50.004;8.246;2024-01-30T06:31:22;22.03;;;14.27;;
10701;SDS011;5402;50.004;8.246;2024-01-30T06:33:49;21.00;;;13.97;;
10701;SDS011;5402;50.004;8.246;2024-01-30T06:36:16;22.03;;;14.13;;
10701;SDS011;5402;50.004;8.246;2024-01-30T06:38:45;21.67;;;14.33;;
10701;SDS011;5402;50.004;8.246;2024-01-30T06:41:12;24.17;;;15.10;;
10701;SDS011;5402;50.004;8.246;2024-01-30T06:43:39;21.37;;;13.97;;
10701;SDS011;5402;50.004;8.246;2024-01-30T06:46:06;21.27;;;14.30;;
10701;SDS011;5402;50.004;8.246;2024-01-30T06:48:33;23.27;;;14.40;;
10701;SDS011;5402;50.004;8.246;2024-01-30T06:50:59;19.77;;;13.80;;
10701;SDS011;5402;50.004;8.246;2024-01-30T06:53:26;21.37;;;14.13;;
10701;SDS011;5402;50.004;8.246;2024-01-30T06:55:54;19.30;;;13.53;;
10701;SDS011;5402;50.004;8.246;2024-01-30T06:58:21;21.60;;;13.93;;
10701;SDS011;5402;50.004;8.246;2024-01-30T07:00:48;21.70;;;14.83;;
10701;SDS011;5402;50.004;8.246;2024-01-30T07:03:14;22.63;;;13.67;;
10701;SDS011;5402;50.004;8.246;2024-01-30T07:05:41;21.90;;;14.13;;
10701;SDS011;5402;50.004;8.246;2024-01-30T07:08:08;24.87;;;14.97;;
10701;SDS011;5402;50.004;8.246;2024-01-30T07:10:35;22.67;;;15.20;;
10701;SDS011;5402;50.004;8.246;2024-01-30T07:13:03;23.10;;;14.67;;
10701;SDS011;5402;50.004;8.246;2024-01-30T07:15:31;24.47;;;15.00;;
10701;SDS011;5402;50.004;8.246;2024-01-30T07:17:57;22.50;;;14.93;;
10701;SDS011;5402;50.004;8.246;2024-01-30T07:20:24;23.23;;;15.03;;
10701;SDS011;5402;50.004;8.246;2024-01-30T07:22:51;21.40;;;14.23;;
10701;SDS011;5402;50.004;8.246;2024-01-30T07:25:18;23.17;;;14.33;;
10701;SDS011;5402;50.004;8.246;2024-01-30T07:27:44;21.97;;;13.53;;
10701;SDS011;5402;50.004;8.246;2024-01-30T07:30:13;20.97;;;14.20;;
10701;SDS011;5402;50.004;8.246;2024-01-30T07:32:41;22.83;;;13.60;;
10701;SDS011;5402;50.004;8.246;2024-01-30T07:35:08;23.20;;;13.63;;
10701;SDS011;5402;50.004;8.246;2024-01-30T07:37:36;22.00;;;14.07;;
10701;SDS011;5402;50.004;8.246;2024-01-30T07:40:03;24.33;;;14.17;;
10701;SDS011;5402;50.004;8.246;2024-01-30T07:42:34;19.63;;;13.27;;
10701;SDS011;5402;50.004;8.246;2024-01-30T07:45:00;22.60;;;14.33;;
10701;SDS011;5402;50.004;8.246;2024-01-30T07:47:30;27.77;;;14.50;;
10701;SDS011;5402;50.004;8.246;2024-01-30T07:49:59;25.63;;;15.07;;
10701;SDS011;5402;50.004;8.246;2024-01-30T07:52:26;24.77;;;15.07;;
10701;SDS011;5402;50.004;8.246;2024-01-30T07:54:54;22.50;;;15.30;;
10701;SDS011;5402;50.004;8.246;2024-01-30T07:57:21;24.63;;;15.53;;
10701;SDS011;5402;50.004;8.246;2024-01-30T07:59:49;25.73;;;14.60;;
10701;SDS011;5402;50.004;8.246;2024-01-30T08:02:16;24.40;;;14.97;;
10701;SDS011;5402;50.004;8.246;2024-01-30T08:04:44;25.15;;;16.13;;
10701;SDS011;5402;50.004;8.246;2024-01-30T08:07:13;24.50;;;15.10;;
10701;SDS011;5402;50.004;8.246;2024-01-30T08:09:40;23.83;;;15.53;;
10701;SDS011;5402;50.004;8.246;2024-01-30T08:12:07;26.07;;;16.20;;
10701;SDS011;5402;50.004;8.246;2024-01-30T08:14:34;23.70;;;16.23;;
10701;SDS011;5402;50.004;8.246;2024-01-30T08:17:00;25.83;;;16.03;;
10701;SDS011;5402;50.004;8.246;2024-01-30T08:19:27;27.40;;;16.70;;
10701;SDS011;5402;50.004;8.246;2024-01-30T08:21:55;28.67;;;15.97;;
10701;SDS011;5402;50.004;8.246;2024-01-30T08:24:22;26.23;;;16.67;;
10701;SDS011;5402;50.004;8.246;2024-01-30T08:26:49;26.47;;;16.03;;
10701;SDS011;5402;50.004;8.246;2024-01-30T08:29:16;29.80;;;15.90;;
10701;SDS011;5402;50.004;8.246;2024-01-30T08:31:43;24.27;;;16.73;;
10701;SDS011;5402;50.004;8.246;2024-01-30T08:34:11;29.07;;;17.47;;
10701;SDS011;5402;50.004;8.246;2024-01-30T08:36:38;28.40;;;17.50;;
10701;SDS011;5402;50.004;8.246;2024-01-30T08:39:06;26.53;;;16.73;;
10701;SDS011;5402;50.004;8.246;2024-01-30T08:41:32;26.03;;;16.73;;
10701;SDS011;5402;50.004;8.246;2024-01-30T08:43:59;27.43;;;17.57;;
10701;SDS011;5402;50.004;8.246;2024-01-30T08:46:26;24.43;;;16.40;;
10701;SDS011;5402;50.004;8.246;2024-01-30T08:48:53;25.97;;;17.13;;
10701;SDS011;5402;50.004;8.246;2024-01-30T08:51:19;26.40;;;17.27;;
10701;SDS011;5402;50.004;8.246;2024-01-30T08:53:46;29.13;;;17.53;;
10701;SDS011;5402;50.004;8.246;2024-01-30T08:56:15;25.73;;;16.10;;
10701;SDS011;5402;50.004;8.246;2024-01-30T08:58:41;26.10;;;16.40;;
10701;SDS011;5402;50.004;8.246;2024-01-30T09:01:08;29.40;;;17.70;;
10701;SDS011;5402;50.004;8.246;2024-01-30T09:03:35;27.90;;;17.33;;
10701;SDS011;5402;50.004;8.246;2024-01-30T09:06:07;24.40;;;16.83;;
10701;SDS011;5402;50.004;8.246;2024-01-30T09:08:34;28.23;;;17.43;;
10701;SDS011;5402;50.004;8.246;2024-01-30T09:11:01;29.97;;;17.33;;
10701;SDS011;5402;50.004;8.246;2024-01-30T09:13:31;24.30;;;16.57;;
10701;SDS011;5402;50.004;8.246;2024-01-30T09:15:58;26.43;;;17.70;;
10701;SDS011;5402;50.004;8.246;2024-01-30T09:18:25;25.93;;;17.17;;
10701;SDS011;5402;50.004;8.246;2024-01-30T09:20:54;28.10;;;17.07;;
10701;SDS011;5402;50.004;8.246;2024-01-30T09:23:20;27.20;;;17.50;;
10701;SDS011;5402;50.004;8.246;2024-01-30T09:25:47;30.47;;;18.93;;
10701;SDS011;5402;50.004;8.246;2024-01-30T09:28:14;29.57;;;18.57;;
10701;SDS011;5402;50.004;8.246;2024-01-30T09:30:42;25.90;;;17.80;;
10701;SDS011;5402;50.004;8.246;2024-01-30T09:33:09;27.80;;;18.57;;
10701;SDS011;5402;50.004;8.246;2024-01-30T09:35:36;29.60;;;18.67;;
10701;SDS011;5402;50.004;8.246;2024-01-30T09:38:03;23.70;;;16.93;;
10701;SDS011;5402;50.004;8.246;2024-01-30T09:40:30;25.27;;;16.20;;
10701;SDS011;5402;50.004;8.246;2024-01-30T09:42:57;26.67;;;16.77;;
10701;SDS011;5402;50.004;8.246;2024-01-30T09:45:26;24.43;;;16.00;;
10701;SDS011;5402;50.004;8.246;2024-01-30T09:47:54;25.83;;;16.33;;
10701;SDS011;5402;50.004;8.246;2024-01-30T09:50:21;25.57;;;16.60;;
10701;SDS011;5402;50.004;8.246;2024-01-30T09:52:47;25.90;;;16.57;;
10701;SDS011;5402;50.004;8.246;2024-01-30T09:55:15;23.77;;;16.27;;
10701;SDS011;5402;50.004;8.246;2024-01-30T09:57:42;26.30;;;15.17;;
10701;SDS011;5402;50.004;8.246;2024-01-30T10:00:09;24.17;;;15.30;;
10701;SDS011;5402;50.004;8.246;2024-01-30T10:02:38;24.30;;;15.30;;
10701;SDS011;5402;50.004;8.246;2024-01-30T10:05:07;23.73;;;16.43;;
10701;SDS011;5402;50.004;8.246;2024-01-30T10:07:34;27.17;;;16.90;;
10701;SDS011;5402;50.004;8.246;2024-01-30T10:10:01;23.60;;;15.73;;
10701;SDS011;5402;50.004;8.246;2024-01-30T10:12:29;29.20;;;17.53;;
10701;SDS011;5402;50.004;8.246;2024-01-30T10:14:56;24.90;;;16.87;;
10701;SDS011;5402;50.004;8.246;2024-01-30T10:17:24;28.27;;;18.77;;
10701;SDS011;5402;50.004;8.246;2024-01-30T10:19:52;23.13;;;15.73;;
10701;SDS011;5402;50.004;8.246;2024-01-30T10:22:20;26.17;;;16.97;;
10701;SDS011;5402;50.004;8.246;2024-01-30T10:24:48;25.57;;;17.93;;
10701;SDS011;5402;50.004;8.246;2024-01-30T10:27:15;25.13;;;17.67;;
10701;SDS011;5402;50.004;8.246;2024-01-30T10:29:42;31.20;;;18.67;;
10701;SDS011;5402;50.004;8.246;2024-01-30T10:32:08;26.20;;;18.57;;
10701;SDS011;5402;50.004;8.246;2024-01-30T10:34:35;27.23;;;18.43;;
10701;SDS011;5402;50.004;8.246;2024-01-30T10:37:07;30.53;;;18.80;;
10701;SDS011;5402;50.004;8.246;2024-01-30T10:39:41;26.83;;;17.73;;
10701;SDS011;5402;50.004;8.246;2024-01-30T10:42:11;29.03;;;19.03;;
10701;SDS011;5402;50.004;8.246;2024-01-30T10:44:42;28.70;;;19.07;;
10701;SDS011;5402;50.004;8.246;2024-01-30T10:47:12;26.90;;;17.83;;
10701;SDS011;5402;50.004;8.246;2024-01-30T10:49:44;26.60;;;17.67;;
10701;SDS011;5402;50.004;8.246;2024-01-30T10:52:13;28.37;;;18.30;;
10701;SDS011;5402;50.004;8.246;2024-01-30T10:54:43;26.67;;;18.53;;
10701;SDS011;5402;50.004;8.246;2024-01-30T10:57:11;21.43;;;16.23;;
10701;SDS011;5402;50.004;8.246;2024-01-30T10:59:39;28.57;;;17.57;;
10701;SDS011;5402;50.004;8.246;2024-01-30T11:02:06;24.00;;;16.87;;
10701;SDS011;5402;50.004;8.246;2024-01-30T11:04:37;25.67;;;17.10;;
10701;SDS011;5402;50.004;8.246;2024-01-30T11:07:17;31.07;;;18.00;;
10701;SDS011;5402;50.004;8.246;2024-01-30T11:09:50;26.33;;;17.50;;
10701;SDS011;5402;50.004;8.246;2024-01-30T11:12:21;26.17;;;17.37;;
10701;SDS011;5402;50.004;8.246;2024-01-30T11:14:48;27.33;;;17.67;;
10701;SDS011;5402;50.004;8.246;2024-01-30T11:17:17;24.60;;;16.17;;
10701;SDS011;5402;50.004;8.246;2024-01-30T11:19:44;27.50;;;17.13;;
10701;SDS011;5402;50.004;8.246;2024-01-30T11:22:12;27.10;;;17.73;;
10701;SDS011;5402;50.004;8.246;2024-01-30T11:24:40;25.67;;;17.30;;
10701;SDS011;5402;50.004;8.246;2024-01-30T11:27:09;28.40;;;18.13;;
10701;SDS011;5402;50.004;8.246;2024-01-30T11:29:36;28.10;;;18.30;;
10701;SDS011;5402;50.004;8.246;2024-01-30T11:32:03;25.53;;;17.23;;
10701;SDS011;5402;50.004;8.246;2024-01-30T11:34:30;27.03;;;17.23;;
10701;SDS011;5402;50.004;8.246;2024-01-30T11:37:02;29.53;;;17.23;;
10701;SDS011;5402;50.004;8.246;2024-01-30T11:39:30;23.67;;;16.97;;
10701;SDS011;5402;50.004;8.246;2024-01-30T11:41:56;20.57;;;15.93;;
10701;SDS011;5402;50.004;8.246;2024-01-30T11:44:25;24.87;;;16.53;;
10701;SDS011;5402;50.004;8.246;2024-01-30T11:46:52;26.67;;;17.40;;
10701;SDS011;5402;50.004;8.246;2024-01-30T11:49:19;24.50;;;16.43;;
10701;SDS011;5402;50.004;8.246;2024-01-30T11:51:46;22.37;;;16.50;;
10701;SDS011;5402;50.004;8.246;2024-01-30T11:54:14;27.60;;;16.87;;
10701;SDS011;5402;50.004;8.246;2024-01-30T11:56:41;23.93;;;17.10;;
10701;SDS011;5402;50.004;8.246;2024-01-30T11:59:09;28.27;;;17.60;;
10701;SDS011;5402;50.004;8.246;2024-01-30T12:01:37;32.30;;;17.37;;
10701;SDS011;5402;50.004;8.246;2024-01-30T12:04:03;25.40;;;16.97;;
10701;SDS011;5402;50.004;8.246;2024-01-30T12:06:33;24.80;;;17.63;;
10701;SDS011;5402;50.004;8.246;2024-01-30T12:09:00;28.33;;;18.50;;
10701;SDS011;5402;50.004;8.246;2024-01-30T12:11:29;27.83;;;18.37;;
10701;SDS011;5402;50.004;8.246;2024-01-30T12:13:56;26.17;;;18.10;;
10701;SDS011;5402;50.004;8.246;2024-01-30T12:16:23;31.17;;;18.50;;
10701;SDS011;5402;50.004;8.246;2024-01-30T12:18:58;31.03;;;19.00;;
10701;SDS011;5402;50.004;8.246;2024-01-30T12:21:26;28.63;;;18.77;;
10701;SDS011;5402;50.004;8.246;2024-01-30T12:23:52;30.80;;;19.00;;
10701;SDS011;5402;50.004;8.246;2024-01-30T12:26:19;26.47;;;18.27;;
10701;SDS011;5402;50.004;8.246;2024-01-30T12:28:49;30.03;;;19.33;;
10701;SDS011;5402;50.004;8.246;2024-01-30T12:31:17;24.77;;;17.77;;
10701;SDS011;5402;50.004;8.246;2024-01-30T12:33:43;26.20;;;18.90;;
10701;SDS011;5402;50.004;8.246;2024-01-30T12:36:12;28.53;;;18.23;;
10701;SDS011;5402;50.004;8.246;2024-01-30T12:38:39;28.03;;;18.33;;
10701;SDS011;5402;50.004;8.246;2024-01-30T12:41:06;25.70;;;17.73;;
10701;SDS011;5402;50.004;8.246;2024-01-30T12:43:36;28.80;;;17.07;;
10701;SDS011;5402;50.004;8.246;2024-01-30T12:46:03;32.27;;;18.47;;
10701;SDS011;5402;50.004;8.246;2024-01-30T12:48:30;25.20;;;17.90;;
10701;SDS011;5402;50.004;8.246;2024-01-30T12:50:57;25.00;;;17.77;;
10701;SDS011;5402;50.004;8.246;2024-01-30T12:53:25;25.50;;;17.50;;
10701;SDS011;5402;50.004;8.246;2024-01-30T12:55:52;24.53;;;16.40;;
10701;SDS011;5402;50.004;8.246;2024-01-30T12:58:19;21.77;;;15.73;;
10701;SDS011;5402;50.004;8.246;2024-01-30T13:00:46;20.33;;;14.27;;
10701;SDS011;5402;50.004;8.246;2024-01-30T13:03:13;19.90;;;14.77;;
10701;SDS011;5402;50.004;8.246;2024-01-30T13:05:40;20.57;;;14.77;;
10701;SDS011;5402;50.004;8.246;2024-01-30T13:08:07;22.97;;;14.70;;
10701;SDS011;5402;50.004;8.246;2024-01-30T13:10:35;25.33;;;15.77;;
10701;SDS011;5402;50.004;8.246;2024-01-30T13:13:02;19.50;;;14.53;;
10701;SDS011;5402;50.004;8.246;2024-01-30T13:15:28;22.27;;;15.40;;
10701;SDS011;5402;50.004;8.246;2024-01-30T13:17:56;22.93;;;15.47;;
10701;SDS011;5402;50.004;8.246;2024-01-30T13:20:22;20.93;;;14.17;;
10701;SDS011;5402;50.004;8.246;2024-01-30T13:22:49;25.07;;;15.07;;
10701;SDS011;5402;50.004;8.246;2024-01-30T13:25:16;19.93;;;14.73;;
10701;SDS011;5402;50.004;8.246;2024-01-30T13:27:46;22.13;;;13.97;;
10701;SDS011;5402;50.004;8.246;2024-01-30T13:30:13;22.50;;;15.40;;
10701;SDS011;5402;50.004;8.246;2024-01-30T13:32:40;21.47;;;15.97;;
10701;SDS011;5402;50.004;8.246;2024-01-30T13:35:09;22.97;;;16.60;;
10701;SDS011;5402;50.004;8.246;2024-01-30T13:37:36;25.23;;;16.73;;
10701;SDS011;5402;50.004;8.246;2024-01-30T13:40:02;26.77;;;16.93;;
10701;SDS011;5402;50.004;8.246;2024-01-30T13:42:31;25.47;;;16.23;;
10701;SDS011;5402;50.004;8.246;2024-01-30T13:45:00;24.40;;;16.73;;
10701;SDS011;5402;50.004;8.246;2024-01-30T13:47:26;24.50;;;16.57;;
10701;SDS011;5402;50.004;8.246;2024-01-30T13:49:54;24.47;;;16.87;;
10701;SDS011;5402;50.004;8.246;2024-01-30T13:52:21;24.80;;;16.53;;
10701;SDS011;5402;50.004;8.246;2024-01-30T13:54:48;23.47;;;16.20;;
10701;SDS011;5402;50.004;8.246;2024-01-30T13:57:14;25.20;;;16.90;;
10701;SDS011;5402;50.004;8.246;2024-01-30T13:59:41;21.77;;;15.47;;
10701;SDS011;5402;50.004;8.246;2024-01-30T14:02:09;24.90;;;15.90;;
10701;SDS011;5402;50.004;8.246;2024-01-30T14:04:36;23.63;;;14.73;;
10701;SDS011;5402;50.004;8.246;2024-01-30T14:07:03;22.73;;;15.23;;
10701;SDS011;5402;50.004;8.246;2024-01-30T14:09:34;20.77;;;14.10;;
10701;SDS011;5402;50.004;8.246;2024-01-30T14:12:01;23.03;;;16.03;;
10701;SDS011;5402;50.004;8.246;2024-01-30T14:14:28;21.83;;;15.30;;
10701;SDS011;5402;50.004;8.246;2024-01-30T14:16:55;24.33;;;15.87;;
10701;SDS011;5402;50.004;8.246;2024-01-30T14:19:23;28.63;;;18.00;;
10701;SDS011;5402;50.004;8.246;2024-01-30T14:21:50;25.60;;;18.63;;
10701;SDS011;5402;50.004;8.246;2024-01-30T14:24:18;28.20;;;19.33;;
10701;SDS011;5402;50.004;8.246;2024-01-30T14:26:45;26.87;;;19.00;;
10701;SDS011;5402;50.004;8.246;2024-01-30T14:29:12;25.40;;;18.80;;
10701;SDS011;5402;50.004;8.246;2024-01-30T14:31:39;26.00;;;17.57;;
10701;SDS011;5402;50.004;8.246;2024-01-30T14:34:05;28.73;;;17.93;;